createdAt,value
2022-12-08T00:02:26.302Z,65.7
2022-12-08T00:07:20.782Z,65.4
2022-12-08T00:12:15.614Z,64.6
2022-12-08T00:17:10.240Z,65.9
2022-12-08T00:22:21.303Z,65.3
2022-12-08T00:27:13.102Z,65.8
2022-12-08T00:32:07.609Z,66.3
2022-12-08T00:37:01.958Z,66
2022-12-08T00:41:56.664Z,66.5
2022-12-08T00:46:51.335Z,64.9
2022-12-08T00:51:46.032Z,66.2
2022-12-08T00:56:40.934Z,65.6
2022-12-08T01:01:35.382Z,67.4
2022-12-08T01:06:30.222Z,66.7
2022-12-08T01:11:25.121Z,66.3
2022-12-08T01:16:19.270Z,67.1
2022-12-08T01:21:14.065Z,66.5
2022-12-08T01:26:08.886Z,67.4
2022-12-08T01:31:03.617Z,66.1
2022-12-08T01:35:57.868Z,66.4
2022-12-08T01:40:52.583Z,65.7
2022-12-08T01:45:47.206Z,66.9
2022-12-08T01:50:41.775Z,67.5
2022-12-08T01:55:36.703Z,67.2
2022-12-08T02:00:31.470Z,66.8
2022-12-08T02:05:26.125Z,65.4
2022-12-08T02:10:20.725Z,67.1
2022-12-08T02:15:15.429Z,66.3
2022-12-08T02:20:09.974Z,65.8
2022-12-08T02:25:04.837Z,67.5
2022-12-08T02:29:59.409Z,67.4
2022-12-08T02:34:54.198Z,68.1
2022-12-08T02:39:49.083Z,69.2
2022-12-08T02:44:43.702Z,67.8
2022-12-08T02:49:38.394Z,67.7
2022-12-08T02:54:33.184Z,68.3
2022-12-08T02:59:27.981Z,67.8
2022-12-08T03:04:22.658Z,68.5
2022-12-08T03:09:17.438Z,68.8
2022-12-08T03:14:12.178Z,68.6
2022-12-08T03:19:06.754Z,67.9
2022-12-08T03:24:01.401Z,68.2
2022-12-08T03:28:55.447Z,68.2
2022-12-08T03:33:50.067Z,68.5
2022-12-08T03:38:44.927Z,68.6
2022-12-08T03:43:39.466Z,67.7
2022-12-08T03:48:34.130Z,68.7
2022-12-08T03:53:28.928Z,67.8
2022-12-08T03:58:23.551Z,68.4
2022-12-08T04:03:18.320Z,68.9
2022-12-08T04:08:13.039Z,69.3
2022-12-08T04:13:07.753Z,68.7
2022-12-08T04:18:02.162Z,68.6
2022-12-08T04:22:57.021Z,67.9
2022-12-08T04:27:51.858Z,69
2022-12-08T04:32:47.591Z,68.6
2022-12-08T04:37:41.395Z,68.6
2022-12-08T04:42:35.935Z,68.2
2022-12-08T04:47:30.624Z,68.7
2022-12-08T04:52:25.756Z,68
2022-12-08T04:57:19.410Z,68.3
2022-12-08T05:02:14.033Z,68.7
2022-12-08T05:07:08.096Z,67.9
2022-12-08T05:12:02.825Z,66.1
2022-12-08T05:16:57.752Z,64.7
2022-12-08T05:21:52.735Z,64.4
2022-12-08T05:26:47.569Z,63.4
2022-12-08T05:31:42.699Z,62.4
2022-12-08T05:36:37.694Z,61.8
2022-12-08T05:41:32.780Z,60.6
2022-12-08T05:46:27.966Z,59.7
2022-12-08T05:51:22.999Z,58.7
2022-12-08T05:56:18.168Z,58.8
2022-12-08T06:01:13.302Z,57.8
2022-12-08T06:06:08.891Z,55.5
2022-12-08T06:11:04.239Z,55.4
2022-12-08T06:15:59.104Z,54.6
2022-12-08T06:20:54.047Z,54
2022-12-08T06:25:48.848Z,56.3
2022-12-08T06:30:43.809Z,56.7
2022-12-08T06:35:38.509Z,55.6
2022-12-08T06:40:33.360Z,55.2
2022-12-08T06:45:26.971Z,49.4
2022-12-08T06:50:22.281Z,54.7
2022-12-08T06:55:42.358Z,55.1
2022-12-08T07:00:11.620Z,55.2
2022-12-08T07:05:06.594Z,55.1
2022-12-08T07:10:01.413Z,55.4
2022-12-08T07:14:55.986Z,55.8
2022-12-08T07:19:50.748Z,55.3
2022-12-08T07:24:45.314Z,55.4
2022-12-08T07:29:40.011Z,55.4
2022-12-08T07:34:34.631Z,55.6
2022-12-08T07:39:29.450Z,56.3
2022-12-08T07:44:24.287Z,56.6
2022-12-08T07:49:18.894Z,56.6
2022-12-08T07:54:13.758Z,56.8
2022-12-08T07:59:07.581Z,56.7
2022-12-08T08:04:02.028Z,56.2
2022-12-08T08:08:56.761Z,56.6
2022-12-08T08:13:51.318Z,57.4
2022-12-08T08:18:45.968Z,57.6
2022-12-08T08:23:39.821Z,57.1
2022-12-08T08:28:34.449Z,58.1
2022-12-08T08:33:29.193Z,58.4
2022-12-08T08:38:22.993Z,58.4
2022-12-08T08:43:17.861Z,58.5
2022-12-08T08:48:12.465Z,58.6
2022-12-08T08:53:06.865Z,58.8
2022-12-08T08:58:01.450Z,58.8
2022-12-08T09:02:56.055Z,59.1
2022-12-08T09:07:50.666Z,59.2
2022-12-08T09:12:45.586Z,59.8
2022-12-08T09:17:40.423Z,59
2022-12-08T09:22:35.037Z,59.5
2022-12-08T09:27:28.975Z,59.5
2022-12-08T09:32:23.648Z,59.4
2022-12-08T09:37:18.021Z,59.4
2022-12-08T09:42:12.389Z,59
2022-12-08T09:47:07.465Z,59.1
2022-12-08T09:52:02.188Z,59.6
2022-12-08T09:56:59.249Z,59.4
2022-12-08T10:01:53.542Z,59.7
2022-12-08T10:06:48.223Z,59.8
2022-12-08T10:11:42.621Z,59.6
2022-12-08T10:16:37.294Z,59.4
2022-12-08T10:21:31.885Z,59.2
2022-12-08T10:26:26.008Z,59.6
2022-12-08T10:31:20.782Z,59.9
2022-12-08T10:36:14.456Z,59.7
2022-12-08T10:41:08.245Z,60
2022-12-08T10:46:02.262Z,60.3
2022-12-08T10:50:56.469Z,60.2
2022-12-08T10:55:50.909Z,60.6
2022-12-08T11:00:45.520Z,60.8
2022-12-08T11:05:40.049Z,60.7
2022-12-08T11:10:34.383Z,60.8
2022-12-08T11:15:28.908Z,60.7
2022-12-08T11:20:23.633Z,61.1
2022-12-08T11:25:18.507Z,61.4
2022-12-08T11:30:14.397Z,61.2
2022-12-08T11:35:07.115Z,61.2
2022-12-08T11:40:01.903Z,61.3
2022-12-08T11:44:55.613Z,61.6
2022-12-08T11:49:50.600Z,61.4
2022-12-08T11:54:45.079Z,61.6
2022-12-08T11:59:39.840Z,60.8
2022-12-08T12:04:34.321Z,61.5
2022-12-08T12:09:28.924Z,61.8
2022-12-08T12:14:23.592Z,61.5
2022-12-08T12:19:18.385Z,62
2022-12-08T12:24:13.003Z,61.5
2022-12-08T12:29:07.852Z,61.8
2022-12-08T12:34:01.772Z,60.2
2022-12-08T12:38:56.709Z,61.5
2022-12-08T12:43:51.013Z,61.8
2022-12-08T12:48:45.831Z,61.9
2022-12-08T12:53:40.335Z,61.8
2022-12-08T12:58:34.965Z,62.1
2022-12-08T13:03:29.622Z,62.3
2022-12-08T13:08:24.448Z,62.5
2022-12-08T13:13:19.250Z,62.5
2022-12-08T13:18:13.678Z,62.5
2022-12-08T13:23:08.063Z,62.5
2022-12-08T13:28:02.769Z,62.6
2022-12-08T13:33:22.152Z,62.6
2022-12-08T13:37:54.698Z,62.5
2022-12-08T13:42:46.293Z,62.8
2022-12-08T13:47:59.841Z,62.8
2022-12-08T13:53:56.302Z,62.7
2022-12-08T13:57:29.025Z,62.7
2022-12-08T14:02:22.783Z,62.8
2022-12-08T14:07:17.471Z,63
2022-12-08T14:12:11.596Z,58
2022-12-08T14:17:05.797Z,57.2
2022-12-08T14:22:00.577Z,60.8
2022-12-08T14:26:55.401Z,61.6
2022-12-08T14:31:49.969Z,61.4
2022-12-08T14:36:44.769Z,61.1
2022-12-08T14:41:39.516Z,61.3
2022-12-08T14:46:34.427Z,60.9
2022-12-08T14:51:29.290Z,60.5
2022-12-08T14:56:24.072Z,59.2
2022-12-08T15:01:18.968Z,58.5
2022-12-08T15:06:14.001Z,57.8
2022-12-08T15:11:08.446Z,58.4
2022-12-08T15:16:03.686Z,56.9
2022-12-08T15:20:58.346Z,56.6
2022-12-08T15:25:53.665Z,56.6
2022-12-08T15:30:48.235Z,54.8
2022-12-08T15:35:42.859Z,55.9
2022-12-08T15:40:36.735Z,55.7
2022-12-08T15:45:31.324Z,55.6
2022-12-08T15:50:26.019Z,55.3
2022-12-08T15:55:19.771Z,55.4
2022-12-08T16:00:30.542Z,55.2
2022-12-08T16:10:03.091Z,55.5
2022-12-08T16:19:52.215Z,55.3
2022-12-08T16:24:46.483Z,55.3
2022-12-08T16:29:41.790Z,55.3
2022-12-08T16:34:36.170Z,54.6
2022-12-08T16:39:30.793Z,54
2022-12-08T16:44:25.817Z,53.4
2022-12-08T16:49:21.088Z,52.2
2022-12-08T16:54:16.461Z,51.6
2022-12-08T16:59:11.386Z,51.3
2022-12-08T17:04:30.225Z,50.9
2022-12-08T17:09:01.750Z,50.2
2022-12-08T17:13:56.695Z,50.6
2022-12-08T17:18:51.499Z,50.7
2022-12-08T17:23:46.343Z,50.9
2022-12-08T17:29:01.625Z,51.6
2022-12-08T17:33:34.738Z,51.3
2022-12-08T17:38:28.687Z,52.2
2022-12-08T17:43:23.349Z,52.6
2022-12-08T17:48:17.534Z,53.4
2022-12-08T17:53:12.237Z,52.9
2022-12-08T17:58:06.719Z,52.7
2022-12-08T18:03:01.678Z,53.9
2022-12-08T18:07:56.572Z,53.8
2022-12-08T18:12:51.141Z,54.2
2022-12-08T18:17:45.535Z,53.9
2022-12-08T18:22:40.199Z,54.6
2022-12-08T18:27:38.622Z,55.1
2022-12-08T18:32:29.687Z,54.9
2022-12-08T18:37:24.431Z,55.5
2022-12-08T18:42:18.916Z,55.6
2022-12-08T18:47:13.621Z,55.4
2022-12-08T18:52:08.556Z,55
2022-12-08T18:57:03.515Z,54.7
2022-12-08T19:01:58.624Z,53.8
2022-12-08T19:06:53.625Z,53.1
2022-12-08T19:11:48.025Z,52.9
2022-12-08T19:16:42.864Z,51.6
2022-12-08T19:21:41.492Z,50.8
2022-12-08T19:26:33.060Z,50.8
2022-12-08T19:31:27.847Z,50.6
2022-12-08T19:36:21.844Z,50.4
2022-12-08T19:41:16.593Z,50.3
2022-12-08T19:46:11.410Z,50.5
2022-12-08T19:51:05.944Z,50.7
2022-12-08T19:56:00.485Z,51.2
2022-12-08T20:00:55.276Z,51.4
2022-12-08T20:05:50.084Z,51.4
2022-12-08T20:10:44.712Z,51.7
2022-12-08T20:15:39.344Z,52.7
2022-12-08T20:20:34.286Z,52.7
2022-12-08T20:25:30.978Z,52.6
2022-12-08T20:30:25.689Z,54
2022-12-08T20:35:19.893Z,53.6
2022-12-08T20:40:14.706Z,53.9
2022-12-08T20:45:09.652Z,54.2
2022-12-08T20:50:04.464Z,54.8
2022-12-08T20:54:58.613Z,54.6
2022-12-08T20:59:53.424Z,55.1
2022-12-08T21:04:48.110Z,55
2022-12-08T21:09:42.256Z,55.4
2022-12-08T21:14:36.802Z,55.1
2022-12-08T21:19:31.306Z,55.1
2022-12-08T21:24:30.366Z,55.1
2022-12-08T21:29:20.804Z,56.1
2022-12-08T21:34:15.428Z,56.1
2022-12-08T21:39:10.278Z,56.2
2022-12-08T21:44:04.800Z,56.3
2022-12-08T21:48:59.773Z,56.4
2022-12-08T21:53:53.835Z,56.8
2022-12-08T21:58:48.544Z,57.3
2022-12-08T22:03:43.566Z,57.4
2022-12-08T22:08:38.034Z,57.8
2022-12-08T22:13:32.409Z,58
2022-12-08T22:18:27.146Z,58.4
2022-12-08T22:23:21.716Z,58.6
2022-12-08T22:28:17.059Z,59
2022-12-08T22:33:11.764Z,58.9
2022-12-08T22:38:06.700Z,58.2
2022-12-08T22:43:01.269Z,59.4
2022-12-08T22:47:56.060Z,59.4
2022-12-08T22:52:50.681Z,59.6
2022-12-08T22:57:45.317Z,60
2022-12-08T23:02:39.888Z,59.8
2022-12-08T23:07:34.514Z,59.6
2022-12-08T23:12:28.536Z,60.3
2022-12-08T23:17:23.343Z,60.8
2022-12-08T23:22:17.667Z,60.4
2022-12-08T23:27:12.340Z,60.8
2022-12-08T23:32:06.405Z,61.1
2022-12-08T23:37:01.286Z,62
2022-12-08T23:41:55.539Z,60.6
2022-12-08T23:46:49.894Z,61
2022-12-08T23:51:44.171Z,61.7
2022-12-08T23:56:38.707Z,61.7
